sensor_id;sensor_type;location;lat;lon;timestamp;temperature;humidity
17423;DHT22;8829;47.932;7.810;2023-02-28T00:00:37;-0.10;99.90
17423;DHT22;8829;47.932;7.810;2023-02-28T00:03:05;-0.10;99.90
17423;DHT22;8829;47.932;7.810;2023-02-28T00:05:32;-0.10;99.90
17423;DHT22;8829;47.932;7.810;2023-02-28T00:07:59;-0.10;99.90
17423;DHT22;8829;47.932;7.810;2023-02-28T00:10:28;-0.10;99.90
17423;DHT22;8829;47.932;7.810;2023-02-28T00:13:00;-0.10;99.90
17423;DHT22;8829;47.932;7.810;2023-02-28T00:15:26;-0.20;99.90
17423;DHT22;8829;47.932;7.810;2023-02-28T00:17:53;-0.10;99.90
17423;DHT22;8829;47.932;7.810;2023-02-28T00:20:20;-0.10;99.90
17423;DHT22;8829;47.932;7.810;2023-02-28T00:22:49;-0.20;99.90
17423;DHT22;8829;47.932;7.810;2023-02-28T00:25:18;-0.20;99.90
17423;DHT22;8829;47.932;7.810;2023-02-28T00:27:46;-0.20;99.90
17423;DHT22;8829;47.932;7.810;2023-02-28T00:30:15;-0.30;99.90
17423;DHT22;8829;47.932;7.810;2023-02-28T00:32:43;-0.30;99.90
17423;DHT22;8829;47.932;7.810;2023-02-28T00:35:10;-0.30;99.90
17423;DHT22;8829;47.932;7.810;2023-02-28T00:40:11;-0.30;99.90
17423;DHT22;8829;47.932;7.810;2023-02-28T00:42:39;-0.30;99.90
17423;DHT22;8829;47.932;7.810;2023-02-28T00:45:06;-0.30;99.90
17423;DHT22;8829;47.932;7.810;2023-02-28T00:47:35;-0.30;99.90
17423;DHT22;8829;47.932;7.810;2023-02-28T00:50:03;-0.30;99.90
17423;DHT22;8829;47.932;7.810;2023-02-28T00:52:29;-0.40;99.90
17423;DHT22;8829;47.932;7.810;2023-02-28T00:54:56;-0.40;99.90
17423;DHT22;8829;47.932;7.810;2023-02-28T00:57:23;-0.30;99.90
17423;DHT22;8829;47.932;7.810;2023-02-28T00:59:49;-0.20;99.90
17423;DHT22;8829;47.932;7.810;2023-02-28T01:02:16;-0.30;99.90
17423;DHT22;8829;47.932;7.810;2023-02-28T01:04:47;-0.30;99.90
17423;DHT22;8829;47.932;7.810;2023-02-28T01:07:13;-0.30;99.90
17423;DHT22;8829;47.932;7.810;2023-02-28T01:09:40;-0.30;99.90
17423;DHT22;8829;47.932;7.810;2023-02-28T01:12:07;-0.20;99.90
17423;DHT22;8829;47.932;7.810;2023-02-28T01:14:35;-0.20;99.90
17423;DHT22;8829;47.932;7.810;2023-02-28T01:17:01;-0.20;99.90
17423;DHT22;8829;47.932;7.810;2023-02-28T01:19:28;-0.20;99.90
17423;DHT22;8829;47.932;7.810;2023-02-28T01:21:56;-0.10;99.90
17423;DHT22;8829;47.932;7.810;2023-02-28T01:24:23;-0.10;99.90
17423;DHT22;8829;47.932;7.810;2023-02-28T01:26:49;-0.20;99.90
17423;DHT22;8829;47.932;7.810;2023-02-28T01:29:16;-0.20;99.90
17423;DHT22;8829;47.932;7.810;2023-02-28T01:31:42;-0.20;99.90
17423;DHT22;8829;47.932;7.810;2023-02-28T01:34:09;-0.20;99.90
17423;DHT22;8829;47.932;7.810;2023-02-28T01:36:36;-0.30;99.90
17423;DHT22;8829;47.932;7.810;2023-02-28T01:39:04;-0.40;99.90
17423;DHT22;8829;47.932;7.810;2023-02-28T01:41:33;-0.40;99.90
17423;DHT22;8829;47.932;7.810;2023-02-28T01:44:03;-0.50;99.90
17423;DHT22;8829;47.932;7.810;2023-02-28T01:46:31;-0.40;99.90
17423;DHT22;8829;47.932;7.810;2023-02-28T01:49:04;-0.50;99.90
17423;DHT22;8829;47.932;7.810;2023-02-28T01:51:36;-0.50;99.90
17423;DHT22;8829;47.932;7.810;2023-02-28T01:54:10;-0.50;99.90
17423;DHT22;8829;47.932;7.810;2023-02-28T01:56:43;-0.50;99.90
17423;DHT22;8829;47.932;7.810;2023-02-28T01:59:12;-0.50;99.90
17423;DHT22;8829;47.932;7.810;2023-02-28T02:01:40;-0.40;99.90
17423;DHT22;8829;47.932;7.810;2023-02-28T02:04:07;-0.40;99.90
17423;DHT22;8829;47.932;7.810;2023-02-28T02:06:37;-0.50;99.90
17423;DHT22;8829;47.932;7.810;2023-02-28T02:09:06;-0.50;99.90
17423;DHT22;8829;47.932;7.810;2023-02-28T02:11:33;-0.60;99.90
17423;DHT22;8829;47.932;7.810;2023-02-28T02:14:24;-0.50;99.90
17423;DHT22;8829;47.932;7.810;2023-02-28T02:17:05;-0.60;99.90
17423;DHT22;8829;47.932;7.810;2023-02-28T02:19:58;-0.60;99.90
17423;DHT22;8829;47.932;7.810;2023-02-28T02:22:43;-0.60;99.90
17423;DHT22;8829;47.932;7.810;2023-02-28T02:25:26;-0.60;99.90
17423;DHT22;8829;47.932;7.810;2023-02-28T02:28:09;-0.60;99.90
17423;DHT22;8829;47.932;7.810;2023-02-28T02:30:56;-0.50;99.90
17423;DHT22;8829;47.932;7.810;2023-02-28T02:33:43;-0.50;99.90
17423;DHT22;8829;47.932;7.810;2023-02-28T02:36:19;-0.50;99.90
17423;DHT22;8829;47.932;7.810;2023-02-28T02:38:51;-0.40;99.90
17423;DHT22;8829;47.932;7.810;2023-02-28T02:41:23;-0.40;99.90
17423;DHT22;8829;47.932;7.810;2023-02-28T02:43:53;-0.50;99.90
17423;DHT22;8829;47.932;7.810;2023-02-28T02:46:25;-0.50;99.90
17423;DHT22;8829;47.932;7.810;2023-02-28T02:48:55;-0.50;99.90
17423;DHT22;8829;47.932;7.810;2023-02-28T02:51:24;-0.50;99.90
17423;DHT22;8829;47.932;7.810;2023-02-28T02:53:55;-0.60;99.90
17423;DHT22;8829;47.932;7.810;2023-02-28T02:56:24;-0.60;99.90
17423;DHT22;8829;47.932;7.810;2023-02-28T02:58:55;-0.60;99.90
17423;DHT22;8829;47.932;7.810;2023-02-28T03:01:25;-0.70;99.90
17423;DHT22;8829;47.932;7.810;2023-02-28T03:03:56;-0.70;99.90
17423;DHT22;8829;47.932;7.810;2023-02-28T03:06:24;-0.80;99.90
17423;DHT22;8829;47.932;7.810;2023-02-28T03:08:51;-0.80;99.90
17423;DHT22;8829;47.932;7.810;2023-02-28T03:11:18;-0.70;99.90
17423;DHT22;8829;47.932;7.810;2023-02-28T03:14:16;-0.70;99.90
17423;DHT22;8829;47.932;7.810;2023-02-28T03:17:03;-0.70;99.90
17423;DHT22;8829;47.932;7.810;2023-02-28T03:19:45;-0.60;99.90
17423;DHT22;8829;47.932;7.810;2023-02-28T03:22:30;-0.60;99.90
17423;DHT22;8829;47.932;7.810;2023-02-28T03:25:07;-0.70;99.90
17423;DHT22;8829;47.932;7.810;2023-02-28T03:27:38;-0.80;99.90
17423;DHT22;8829;47.932;7.810;2023-02-28T03:30:10;-0.80;99.90
17423;DHT22;8829;47.932;7.810;2023-02-28T03:32:42;-0.70;99.90
17423;DHT22;8829;47.932;7.810;2023-02-28T03:35:16;-0.70;99.90
17423;DHT22;8829;47.932;7.810;2023-02-28T03:37:51;-0.90;99.90
17423;DHT22;8829;47.932;7.810;2023-02-28T03:40:22;-0.80;99.90
17423;DHT22;8829;47.932;7.810;2023-02-28T03:42:52;-0.80;99.90
17423;DHT22;8829;47.932;7.810;2023-02-28T03:45:22;-0.80;99.90
17423;DHT22;8829;47.932;7.810;2023-02-28T03:47:53;-0.80;99.90
17423;DHT22;8829;47.932;7.810;2023-02-28T03:50:23;-0.80;99.90
17423;DHT22;8829;47.932;7.810;2023-02-28T03:52:56;-0.90;99.90
17423;DHT22;8829;47.932;7.810;2023-02-28T03:55:29;-1.00;99.90
17423;DHT22;8829;47.932;7.810;2023-02-28T03:58:01;-1.00;99.90
17423;DHT22;8829;47.932;7.810;2023-02-28T04:00:32;-0.90;99.90
17423;DHT22;8829;47.932;7.810;2023-02-28T04:03:00;-1.00;99.90
17423;DHT22;8829;47.932;7.810;2023-02-28T04:05:28;-1.10;99.90
17423;DHT22;8829;47.932;7.810;2023-02-28T04:08:03;-1.10;99.90
17423;DHT22;8829;47.932;7.810;2023-02-28T04:10:30;-1.20;99.90
17423;DHT22;8829;47.932;7.810;2023-02-28T04:12:56;-1.10;99.90
17423;DHT22;8829;47.932;7.810;2023-02-28T04:15:23;-1.20;99.90
17423;DHT22;8829;47.932;7.810;2023-02-28T04:17:50;-1.50;99.90
17423;DHT22;8829;47.932;7.810;2023-02-28T04:20:17;-1.40;99.90
17423;DHT22;8829;47.932;7.810;2023-02-28T04:22:44;-1.50;99.90
17423;DHT22;8829;47.932;7.810;2023-02-28T04:25:12;-1.50;99.90
17423;DHT22;8829;47.932;7.810;2023-02-28T04:27:38;-1.60;99.90
17423;DHT22;8829;47.932;7.810;2023-02-28T04:30:06;-1.50;99.90
17423;DHT22;8829;47.932;7.810;2023-02-28T04:32:33;-1.60;99.90
17423;DHT22;8829;47.932;7.810;2023-02-28T04:37:35;-1.70;99.90
17423;DHT22;8829;47.932;7.810;2023-02-28T04:40:03;-1.70;99.90
17423;DHT22;8829;47.932;7.810;2023-02-28T04:42:31;-1.60;99.90
17423;DHT22;8829;47.932;7.810;2023-02-28T04:45:01;-1.70;99.90
17423;DHT22;8829;47.932;7.810;2023-02-28T04:47:27;-1.80;99.90
17423;DHT22;8829;47.932;7.810;2023-02-28T04:49:54;-1.70;99.90
17423;DHT22;8829;47.932;7.810;2023-02-28T04:52:21;-1.70;99.90
17423;DHT22;8829;47.932;7.810;2023-02-28T04:54:47;-1.80;99.90
17423;DHT22;8829;47.932;7.810;2023-02-28T04:57:14;-1.70;99.90
17423;DHT22;8829;47.932;7.810;2023-02-28T04:59:42;-1.70;99.90
17423;DHT22;8829;47.932;7.810;2023-02-28T05:02:09;-1.70;99.90
17423;DHT22;8829;47.932;7.810;2023-02-28T05:04:36;-1.70;99.90
17423;DHT22;8829;47.932;7.810;2023-02-28T05:07:03;-1.60;99.90
17423;DHT22;8829;47.932;7.810;2023-02-28T05:09:29;-1.60;99.90
17423;DHT22;8829;47.932;7.810;2023-02-28T05:11:58;-1.60;99.90
17423;DHT22;8829;47.932;7.810;2023-02-28T05:14:24;-1.60;99.90
17423;DHT22;8829;47.932;7.810;2023-02-28T05:16:52;-1.60;99.90
17423;DHT22;8829;47.932;7.810;2023-02-28T05:19:20;-1.60;99.90
17423;DHT22;8829;47.932;7.810;2023-02-28T05:21:51;-1.60;99.90
17423;DHT22;8829;47.932;7.810;2023-02-28T05:24:19;-1.80;99.90
17423;DHT22;8829;47.932;7.810;2023-02-28T05:26:48;-1.80;99.90
17423;DHT22;8829;47.932;7.810;2023-02-28T05:29:16;-1.80;99.90
17423;DHT22;8829;47.932;7.810;2023-02-28T05:31:42;-1.80;99.90
17423;DHT22;8829;47.932;7.810;2023-02-28T05:34:10;-1.80;99.90
17423;DHT22;8829;47.932;7.810;2023-02-28T05:36:38;-1.80;99.90
17423;DHT22;8829;47.932;7.810;2023-02-28T05:39:05;-1.90;99.90
17423;DHT22;8829;47.932;7.810;2023-02-28T05:41:32;-1.80;99.90
17423;DHT22;8829;47.932;7.810;2023-02-28T05:43:59;-1.80;99.90
17423;DHT22;8829;47.932;7.810;2023-02-28T05:46:26;-1.90;99.90
17423;DHT22;8829;47.932;7.810;2023-02-28T05:48:53;-2.00;99.90
17423;DHT22;8829;47.932;7.810;2023-02-28T05:51:22;-2.10;99.90
17423;DHT22;8829;47.932;7.810;2023-02-28T05:53:49;-2.10;99.90
17423;DHT22;8829;47.932;7.810;2023-02-28T05:56:15;-2.20;99.90
17423;DHT22;8829;47.932;7.810;2023-02-28T05:58:42;-2.20;99.90
17423;DHT22;8829;47.932;7.810;2023-02-28T06:01:24;-2.20;99.90
17423;DHT22;8829;47.932;7.810;2023-02-28T06:03:51;-2.20;99.90
17423;DHT22;8829;47.932;7.810;2023-02-28T06:06:18;-2.20;99.90
17423;DHT22;8829;47.932;7.810;2023-02-28T06:08:46;-2.20;99.90
17423;DHT22;8829;47.932;7.810;2023-02-28T06:11:13;-2.20;99.90
17423;DHT22;8829;47.932;7.810;2023-02-28T06:13:40;-2.20;99.90
17423;DHT22;8829;47.932;7.810;2023-02-28T06:16:08;-2.20;99.90
17423;DHT22;8829;47.932;7.810;2023-02-28T06:18:35;-2.20;99.90
17423;DHT22;8829;47.932;7.810;2023-02-28T06:21:02;-2.30;99.90
17423;DHT22;8829;47.932;7.810;2023-02-28T06:23:29;-2.20;99.90
17423;DHT22;8829;47.932;7.810;2023-02-28T06:25:57;-2.30;99.90
17423;DHT22;8829;47.932;7.810;2023-02-28T06:28:24;-2.30;99.90
17423;DHT22;8829;47.932;7.810;2023-02-28T06:30:52;-2.20;99.90
17423;DHT22;8829;47.932;7.810;2023-02-28T06:33:18;-2.20;99.90
17423;DHT22;8829;47.932;7.810;2023-02-28T06:35:46;-2.20;99.90
17423;DHT22;8829;47.932;7.810;2023-02-28T06:38:13;-2.20;99.90
17423;DHT22;8829;47.932;7.810;2023-02-28T06:40:40;-2.20;99.90
17423;DHT22;8829;47.932;7.810;2023-02-28T06:43:08;-2.20;99.90
17423;DHT22;8829;47.932;7.810;2023-02-28T06:45:37;-2.30;99.90
17423;DHT22;8829;47.932;7.810;2023-02-28T06:48:04;-2.20;99.90
17423;DHT22;8829;47.932;7.810;2023-02-28T06:50:30;-2.20;99.90
17423;DHT22;8829;47.932;7.810;2023-02-28T06:52:58;-2.20;99.90
17423;DHT22;8829;47.932;7.810;2023-02-28T06:55:24;-2.30;99.90
17423;DHT22;8829;47.932;7.810;2023-02-28T06:57:51;-2.10;99.90
17423;DHT22;8829;47.932;7.810;2023-02-28T07:00:20;-2.00;99.90
17423;DHT22;8829;47.932;7.810;2023-02-28T07:02:47;-1.90;99.90
17423;DHT22;8829;47.932;7.810;2023-02-28T07:05:13;-2.00;99.90
17423;DHT22;8829;47.932;7.810;2023-02-28T07:07:40;-2.00;99.90
17423;DHT22;8829;47.932;7.810;2023-02-28T07:10:10;-2.00;99.90
17423;DHT22;8829;47.932;7.810;2023-02-28T07:12:38;-2.00;99.90
17423;DHT22;8829;47.932;7.810;2023-02-28T07:15:05;-2.00;99.90
17423;DHT22;8829;47.932;7.810;2023-02-28T07:17:33;-2.10;99.90
17423;DHT22;8829;47.932;7.810;2023-02-28T07:20:00;-2.00;99.90
17423;DHT22;8829;47.932;7.810;2023-02-28T07:22:30;-2.00;99.90
17423;DHT22;8829;47.932;7.810;2023-02-28T07:24:56;-2.00;99.90
17423;DHT22;8829;47.932;7.810;2023-02-28T07:27:23;-1.90;99.90
17423;DHT22;8829;47.932;7.810;2023-02-28T07:29:53;-1.80;99.90
17423;DHT22;8829;47.932;7.810;2023-02-28T07:32:20;-1.80;99.90
17423;DHT22;8829;47.932;7.810;2023-02-28T07:34:48;-1.70;99.90
17423;DHT22;8829;47.932;7.810;2023-02-28T07:37:15;-1.70;99.90
17423;DHT22;8829;47.932;7.810;2023-02-28T07:39:41;-1.60;99.90
17423;DHT22;8829;47.932;7.810;2023-02-28T07:42:08;-1.60;99.90
17423;DHT22;8829;47.932;7.810;2023-02-28T07:44:37;-1.60;99.90
17423;DHT22;8829;47.932;7.810;2023-02-28T07:47:06;-1.40;99.90
17423;DHT22;8829;47.932;7.810;2023-02-28T07:49:33;-1.40;99.90
17423;DHT22;8829;47.932;7.810;2023-02-28T07:52:02;-1.30;99.90
17423;DHT22;8829;47.932;7.810;2023-02-28T07:54:29;-1.20;99.90
17423;DHT22;8829;47.932;7.810;2023-02-28T07:56:55;-1.10;99.90
17423;DHT22;8829;47.932;7.810;2023-02-28T07:59:22;-1.10;99.90
17423;DHT22;8829;47.932;7.810;2023-02-28T08:01:49;-1.10;99.90
17423;DHT22;8829;47.932;7.810;2023-02-28T08:04:16;-1.00;99.90
17423;DHT22;8829;47.932;7.810;2023-02-28T08:06:42;-1.00;99.90
17423;DHT22;8829;47.932;7.810;2023-02-28T08:09:10;-0.90;99.90
17423;DHT22;8829;47.932;7.810;2023-02-28T08:11:37;-0.80;99.90
17423;DHT22;8829;47.932;7.810;2023-02-28T08:14:04;-0.80;99.90
17423;DHT22;8829;47.932;7.810;2023-02-28T08:16:31;-0.80;99.90
17423;DHT22;8829;47.932;7.810;2023-02-28T08:18:57;-0.80;99.90
17423;DHT22;8829;47.932;7.810;2023-02-28T08:21:24;-0.80;99.90
17423;DHT22;8829;47.932;7.810;2023-02-28T08:23:51;-0.90;99.90
17423;DHT22;8829;47.932;7.810;2023-02-28T08:26:20;-0.90;99.90
17423;DHT22;8829;47.932;7.810;2023-02-28T08:28:47;-0.90;99.90
17423;DHT22;8829;47.932;7.810;2023-02-28T08:31:15;-0.80;99.90
17423;DHT22;8829;47.932;7.810;2023-02-28T08:33:43;-0.70;99.90
17423;DHT22;8829;47.932;7.810;2023-02-28T08:36:11;-0.60;99.90
17423;DHT22;8829;47.932;7.810;2023-02-28T08:38:38;-0.60;99.90
17423;DHT22;8829;47.932;7.810;2023-02-28T08:41:06;-0.40;99.90
17423;DHT22;8829;47.932;7.810;2023-02-28T08:43:36;-0.30;99.90
17423;DHT22;8829;47.932;7.810;2023-02-28T08:46:03;-0.20;99.90
17423;DHT22;8829;47.932;7.810;2023-02-28T08:48:33;0.00;99.90
17423;DHT22;8829;47.932;7.810;2023-02-28T08:51:01;0.10;99.90
17423;DHT22;8829;47.932;7.810;2023-02-28T08:53:28;0.30;99.90
17423;DHT22;8829;47.932;7.810;2023-02-28T08:55:56;0.50;99.90
17423;DHT22;8829;47.932;7.810;2023-02-28T08:58:23;0.50;99.90
17423;DHT22;8829;47.932;7.810;2023-02-28T09:00:52;0.60;99.90
17423;DHT22;8829;47.932;7.810;2023-02-28T09:03:19;0.70;99.90
17423;DHT22;8829;47.932;7.810;2023-02-28T09:05:52;0.80;99.90
17423;DHT22;8829;47.932;7.810;2023-02-28T09:08:19;0.60;99.90
17423;DHT22;8829;47.932;7.810;2023-02-28T09:10:45;0.90;99.90
17423;DHT22;8829;47.932;7.810;2023-02-28T09:13:12;0.80;99.90
17423;DHT22;8829;47.932;7.810;2023-02-28T09:15:39;0.90;99.90
17423;DHT22;8829;47.932;7.810;2023-02-28T09:18:07;0.80;99.90
17423;DHT22;8829;47.932;7.810;2023-02-28T09:20:34;0.90;99.90
17423;DHT22;8829;47.932;7.810;2023-02-28T09:23:03;1.30;99.90
17423;DHT22;8829;47.932;7.810;2023-02-28T09:25:30;1.20;99.90
17423;DHT22;8829;47.932;7.810;2023-02-28T09:27:56;1.20;99.90
17423;DHT22;8829;47.932;7.810;2023-02-28T09:30:23;1.20;99.90
17423;DHT22;8829;47.932;7.810;2023-02-28T09:32:50;1.30;99.90
17423;DHT22;8829;47.932;7.810;2023-02-28T09:35:18;1.40;99.90
17423;DHT22;8829;47.932;7.810;2023-02-28T09:37:46;1.90;99.90
17423;DHT22;8829;47.932;7.810;2023-02-28T09:40:14;1.90;99.90
17423;DHT22;8829;47.932;7.810;2023-02-28T09:42:46;2.00;99.90
17423;DHT22;8829;47.932;7.810;2023-02-28T09:45:22;2.20;99.90
17423;DHT22;8829;47.932;7.810;2023-02-28T09:47:52;2.80;99.90
17423;DHT22;8829;47.932;7.810;2023-02-28T09:50:29;2.90;99.90
17423;DHT22;8829;47.932;7.810;2023-02-28T09:52:59;3.00;99.90
17423;DHT22;8829;47.932;7.810;2023-02-28T09:55:30;3.10;99.90
17423;DHT22;8829;47.932;7.810;2023-02-28T09:57:57;2.60;99.90
17423;DHT22;8829;47.932;7.810;2023-02-28T10:00:30;2.50;99.90
17423;DHT22;8829;47.932;7.810;2023-02-28T10:03:06;2.20;99.90
17423;DHT22;8829;47.932;7.810;2023-02-28T10:05:41;2.00;99.90
17423;DHT22;8829;47.932;7.810;2023-02-28T10:08:13;2.10;99.90
17423;DHT22;8829;47.932;7.810;2023-02-28T10:10:42;2.00;99.90
17423;DHT22;8829;47.932;7.810;2023-02-28T10:13:17;2.10;99.90
17423;DHT22;8829;47.932;7.810;2023-02-28T10:15:48;2.20;99.90
17423;DHT22;8829;47.932;7.810;2023-02-28T10:18:21;2.60;99.90
17423;DHT22;8829;47.932;7.810;2023-02-28T10:20:51;2.50;99.90
17423;DHT22;8829;47.932;7.810;2023-02-28T10:23:21;2.30;99.90
17423;DHT22;8829;47.932;7.810;2023-02-28T10:25:54;2.10;99.90
17423;DHT22;8829;47.932;7.810;2023-02-28T10:28:21;2.00;99.90
17423;DHT22;8829;47.932;7.810;2023-02-28T10:30:51;1.90;99.90
17423;DHT22;8829;47.932;7.810;2023-02-28T10:33:21;1.90;99.90
17423;DHT22;8829;47.932;7.810;2023-02-28T10:35:48;2.00;99.90
17423;DHT22;8829;47.932;7.810;2023-02-28T10:38:21;2.00;99.90
17423;DHT22;8829;47.932;7.810;2023-02-28T10:40:49;1.90;99.90
17423;DHT22;8829;47.932;7.810;2023-02-28T10:43:23;1.70;99.90
17423;DHT22;8829;47.932;7.810;2023-02-28T10:45:59;1.50;99.90
17423;DHT22;8829;47.932;7.810;2023-02-28T10:48:32;1.60;99.90
17423;DHT22;8829;47.932;7.810;2023-02-28T10:50:59;1.70;99.90
17423;DHT22;8829;47.932;7.810;2023-02-28T10:53:33;1.70;99.90
17423;DHT22;8829;47.932;7.810;2023-02-28T10:56:03;1.70;99.90
17423;DHT22;8829;47.932;7.810;2023-02-28T10:58:34;1.90;99.90
17423;DHT22;8829;47.932;7.810;2023-02-28T11:01:13;2.10;99.90
17423;DHT22;8829;47.932;7.810;2023-02-28T11:03:41;2.40;99.90
17423;DHT22;8829;47.932;7.810;2023-02-28T11:06:12;2.80;99.90
17423;DHT22;8829;47.932;7.810;2023-02-28T11:08:46;3.00;99.90
17423;DHT22;8829;47.932;7.810;2023-02-28T11:11:13;2.80;99.90
17423;DHT22;8829;47.932;7.810;2023-02-28T11:13:43;2.70;99.90
17423;DHT22;8829;47.932;7.810;2023-02-28T11:16:12;2.70;99.90
17423;DHT22;8829;47.932;7.810;2023-02-28T11:18:42;2.70;99.90
17423;DHT22;8829;47.932;7.810;2023-02-28T11:21:10;2.50;99.90
17423;DHT22;8829;47.932;7.810;2023-02-28T11:23:41;2.50;99.90
17423;DHT22;8829;47.932;7.810;2023-02-28T11:26:10;2.60;99.90
17423;DHT22;8829;47.932;7.810;2023-02-28T11:28:39;2.70;99.90
17423;DHT22;8829;47.932;7.810;2023-02-28T11:31:16;2.50;99.90
17423;DHT22;8829;47.932;7.810;2023-02-28T11:33:46;2.30;99.90
17423;DHT22;8829;47.932;7.810;2023-02-28T11:36:19;2.20;99.90
17423;DHT22;8829;47.932;7.810;2023-02-28T11:38:47;2.10;99.90
17423;DHT22;8829;47.932;7.810;2023-02-28T11:41:43;2.10;99.90
17423;DHT22;8829;47.932;7.810;2023-02-28T11:44:33;2.20;99.90
17423;DHT22;8829;47.932;7.810;2023-02-28T11:47:07;2.20;99.90
17423;DHT22;8829;47.932;7.810;2023-02-28T11:49:45;2.20;99.90
17423;DHT22;8829;47.932;7.810;2023-02-28T11:52:21;2.30;99.90
17423;DHT22;8829;47.932;7.810;2023-02-28T11:55:04;2.40;99.90
17423;DHT22;8829;47.932;7.810;2023-02-28T11:57:53;2.50;99.90
17423;DHT22;8829;47.932;7.810;2023-02-28T12:00:38;2.10;99.90
17423;DHT22;8829;47.932;7.810;2023-02-28T12:03:16;2.10;99.90
17423;DHT22;8829;47.932;7.810;2023-02-28T12:05:53;2.20;99.90
17423;DHT22;8829;47.932;7.810;2023-02-28T12:08:30;2.10;99.90
17423;DHT22;8829;47.932;7.810;2023-02-28T12:11:09;2.20;99.90
17423;DHT22;8829;47.932;7.810;2023-02-28T12:13:45;2.10;99.90
17423;DHT22;8829;47.932;7.810;2023-02-28T12:16:27;2.00;99.90
17423;DHT22;8829;47.932;7.810;2023-02-28T12:19:06;2.00;99.90
17423;DHT22;8829;47.932;7.810;2023-02-28T12:21:48;2.10;99.90
17423;DHT22;8829;47.932;7.810;2023-02-28T12:24:33;2.10;99.90
17423;DHT22;8829;47.932;7.810;2023-02-28T12:27:09;2.30;99.90
17423;DHT22;8829;47.932;7.810;2023-02-28T12:29:46;2.10;99.90
17423;DHT22;8829;47.932;7.810;2023-02-28T12:32:18;1.90;99.90
17423;DHT22;8829;47.932;7.810;2023-02-28T12:34:50;1.90;99.90
17423;DHT22;8829;47.932;7.810;2023-02-28T12:37:22;2.00;99.90
17423;DHT22;8829;47.932;7.810;2023-02-28T12:39:53;1.90;99.90
17423;DHT22;8829;47.932;7.810;2023-02-28T12:42:26;1.90;99.90
17423;DHT22;8829;47.932;7.810;2023-02-28T12:44:58;2.00;99.90
17423;DHT22;8829;47.932;7.810;2023-02-28T12:47:26;2.00;99.90
17423;DHT22;8829;47.932;7.810;2023-02-28T12:49:56;2.20;99.90
17423;DHT22;8829;47.932;7.810;2023-02-28T12:52:31;2.20;99.90
17423;DHT22;8829;47.932;7.810;2023-02-28T12:55:08;2.30;99.90
17423;DHT22;8829;47.932;7.810;2023-02-28T12:57:44;2.40;99.90
17423;DHT22;8829;47.932;7.810;2023-02-28T13:00:16;2.60;99.90
17423;DHT22;8829;47.932;7.810;2023-02-28T13:03:03;2.50;99.90
17423;DHT22;8829;47.932;7.810;2023-02-28T13:06:01;2.40;99.90
17423;DHT22;8829;47.932;7.810;2023-02-28T13:08:52;2.40;99.90
17423;DHT22;8829;47.932;7.810;2023-02-28T13:11:25;2.20;99.90
17423;DHT22;8829;47.932;7.810;2023-02-28T13:13:58;2.20;99.90
17423;DHT22;8829;47.932;7.810;2023-02-28T13:16:26;2.30;99.90
17423;DHT22;8829;47.932;7.810;2023-02-28T13:19:08;2.60;99.90
17423;DHT22;8829;47.932;7.810;2023-02-28T13:21:43;2.60;99.90
17423;DHT22;8829;47.932;7.810;2023-02-28T13:24:10;2.60;99.90
17423;DHT22;8829;47.932;7.810;2023-02-28T13:27:11;2.60;99.90
17423;DHT22;8829;47.932;7.810;2023-02-28T13:29:39;2.40;99.90
17423;DHT22;8829;47.932;7.810;2023-02-28T13:32:32;2.50;99.90
17423;DHT22;8829;47.932;7.810;2023-02-28T13:35:42;2.50;99.90
17423;DHT22;8829;47.932;7.810;2023-02-28T13:38:22;2.60;99.90
17423;DHT22;8829;47.932;7.810;2023-02-28T13:40:50;2.60;99.90
17423;DHT22;8829;47.932;7.810;2023-02-28T13:43:18;2.60;99.90
17423;DHT22;8829;47.932;7.810;2023-02-28T13:46:08;2.60;99.90
17423;DHT22;8829;47.932;7.810;2023-02-28T13:48:38;2.50;99.90
17423;DHT22;8829;47.932;7.810;2023-02-28T13:54:35;2.60;99.90
17423;DHT22;8829;47.932;7.810;2023-02-28T13:57:19;2.40;99.90
17423;DHT22;8829;47.932;7.810;2023-02-28T13:59:58;2.50;99.90
17423;DHT22;8829;47.932;7.810;2023-02-28T14:05:39;2.60;99.90
17423;DHT22;8829;47.932;7.810;2023-02-28T14:08:10;2.60;99.90
17423;DHT22;8829;47.932;7.810;2023-02-28T14:10:44;2.80;99.90
17423;DHT22;8829;47.932;7.810;2023-02-28T14:13:14;2.80;99.90
17423;DHT22;8829;47.932;7.810;2023-02-28T14:16:04;2.70;99.90
17423;DHT22;8829;47.932;7.810;2023-02-28T14:18:33;2.80;99.90
17423;DHT22;8829;47.932;7.810;2023-02-28T14:21:09;2.70;99.90
17423;DHT22;8829;47.932;7.810;2023-02-28T14:23:46;2.70;99.90
17423;DHT22;8829;47.932;7.810;2023-02-28T14:26:28;2.80;99.90
17423;DHT22;8829;47.932;7.810;2023-02-28T14:29:12;2.80;99.90
17423;DHT22;8829;47.932;7.810;2023-02-28T14:31:51;2.80;99.90
17423;DHT22;8829;47.932;7.810;2023-02-28T14:34:37;2.90;99.90
17423;DHT22;8829;47.932;7.810;2023-02-28T14:37:10;2.80;99.90
17423;DHT22;8829;47.932;7.810;2023-02-28T14:39:41;2.70;99.90
17423;DHT22;8829;47.932;7.810;2023-02-28T14:42:25;2.70;99.90
17423;DHT22;8829;47.932;7.810;2023-02-28T14:44:54;2.80;99.90
17423;DHT22;8829;47.932;7.810;2023-02-28T14:47:25;2.80;99.90
17423;DHT22;8829;47.932;7.810;2023-02-28T14:49:53;2.70;99.90
17423;DHT22;8829;47.932;7.810;2023-02-28T14:52:22;2.80;99.90
17423;DHT22;8829;47.932;7.810;2023-02-28T14:54:52;2.80;99.90
17423;DHT22;8829;47.932;7.810;2023-02-28T14:57:22;2.50;99.90
17423;DHT22;8829;47.932;7.810;2023-02-28T14:59:57;2.60;99.90
17423;DHT22;8829;47.932;7.810;2023-02-28T15:02:29;2.70;99.90
17423;DHT22;8829;47.932;7.810;2023-02-28T15:04:58;2.80;99.90
17423;DHT22;8829;47.932;7.810;2023-02-28T15:07:26;2.80;99.90
17423;DHT22;8829;47.932;7.810;2023-02-28T15:10:10;2.70;99.90
17423;DHT22;8829;47.932;7.810;2023-02-28T15:12:37;2.80;99.90
17423;DHT22;8829;47.932;7.810;2023-02-28T15:15:06;2.70;99.90
17423;DHT22;8829;47.932;7.810;2023-02-28T15:17:35;2.70;99.90
17423;DHT22;8829;47.932;7.810;2023-02-28T15:20:02;2.70;99.90
17423;DHT22;8829;47.932;7.810;2023-02-28T15:22:34;2.70;99.90
17423;DHT22;8829;47.932;7.810;2023-02-28T15:25:03;2.50;99.90
17423;DHT22;8829;47.932;7.810;2023-02-28T15:27:32;2.40;99.90
17423;DHT22;8829;47.932;7.810;2023-02-28T15:30:05;2.30;99.90
17423;DHT22;8829;47.932;7.810;2023-02-28T15:32:34;2.30;99.90
17423;DHT22;8829;47.932;7.810;2023-02-28T15:35:17;2.30;99.90
17423;DHT22;8829;47.932;7.810;2023-02-28T15:37:47;2.20;99.90
17423;DHT22;8829;47.932;7.810;2023-02-28T15:40:16;2.20;99.90
17423;DHT22;8829;47.932;7.810;2023-02-28T15:42:58;2.20;99.90
17423;DHT22;8829;47.932;7.810;2023-02-28T15:45:32;2.20;99.90
17423;DHT22;8829;47.932;7.810;2023-02-28T15:48:05;2.10;99.90
17423;DHT22;8829;47.932;7.810;2023-02-28T15:50:32;2.10;99.90
17423;DHT22;8829;47.932;7.810;2023-02-28T15:53:00;2.00;99.90
17423;DHT22;8829;47.932;7.810;2023-02-28T15:55:30;2.10;99.90
17423;DHT22;8829;47.932;7.810;2023-02-28T15:57:59;2.00;99.90
17423;DHT22;8829;47.932;7.810;2023-02-28T16:00:31;1.90;99.90
17423;DHT22;8829;47.932;7.810;2023-02-28T16:02:59;1.90;99.90
17423;DHT22;8829;47.932;7.810;2023-02-28T16:05:28;1.90;99.90
17423;DHT22;8829;47.932;7.810;2023-02-28T16:07:58;1.90;99.90
17423;DHT22;8829;47.932;7.810;2023-02-28T16:10:26;1.90;99.90
17423;DHT22;8829;47.932;7.810;2023-02-28T16:12:55;1.80;99.90
17423;DHT22;8829;47.932;7.810;2023-02-28T16:15:24;1.90;99.90
17423;DHT22;8829;47.932;7.810;2023-02-28T16:17:52;1.80;99.90
17423;DHT22;8829;47.932;7.810;2023-02-28T16:20:21;1.80;99.90
17423;DHT22;8829;47.932;7.810;2023-02-28T16:22:50;1.80;99.90
17423;DHT22;8829;47.932;7.810;2023-02-28T16:25:18;1.70;99.90
17423;DHT22;8829;47.932;7.810;2023-02-28T16:27:48;1.70;99.90